sensor_id;sensor_type;location;lat;lon;timestamp;P1;durP1;ratioP1;P2;durP2;ratioP2
10661;SDS011;5379;51.034;7.006;2023-05-10T04:31:09;3.90;;;2.97;;
10661;SDS011;5379;51.034;7.006;2023-05-10T04:33:36;4.33;;;3.40;;
10661;SDS011;5379;51.034;7.006;2023-05-10T04:36:04;4.07;;;3.80;;
10661;SDS011;5379;51.034;7.006;2023-05-10T04:38:31;3.50;;;3.30;;
10661;SDS011;5379;51.034;7.006;2023-05-10T04:41:04;3.63;;;3.33;;
10661;SDS011;5379;51.034;7.006;2023-05-10T04:43:32;3.80;;;3.50;;
10661;SDS011;5379;51.034;7.006;2023-05-10T04:45:59;4.60;;;4.30;;
10661;SDS011;5379;51.034;7.006;2023-05-10T04:48:27;5.27;;;4.77;;
10661;SDS011;5379;51.034;7.006;2023-05-10T04:50:54;4.83;;;4.40;;
10661;SDS011;5379;51.034;7.006;2023-05-10T04:53:21;4.57;;;4.10;;
10661;SDS011;5379;51.034;7.006;2023-05-10T04:55:48;4.83;;;4.43;;
10661;SDS011;5379;51.034;7.006;2023-05-10T04:58:15;5.13;;;4.73;;
10661;SDS011;5379;51.034;7.006;2023-05-10T05:00:42;3.90;;;3.60;;
10661;SDS011;5379;51.034;7.006;2023-05-10T05:03:09;3.83;;;3.60;;
10661;SDS011;5379;51.034;7.006;2023-05-10T05:05:37;5.40;;;4.90;;
10661;SDS011;5379;51.034;7.006;2023-05-10T05:08:05;4.17;;;3.97;;
10661;SDS011;5379;51.034;7.006;2023-05-10T05:10:32;4.57;;;4.17;;
10661;SDS011;5379;51.034;7.006;2023-05-10T05:12:59;4.20;;;3.90;;
10661;SDS011;5379;51.034;7.006;2023-05-10T05:15:25;4.17;;;3.87;;
10661;SDS011;5379;51.034;7.006;2023-05-10T05:17:52;4.87;;;4.57;;
10661;SDS011;5379;51.034;7.006;2023-05-10T05:20:20;4.10;;;3.80;;
10661;SDS011;5379;51.034;7.006;2023-05-10T05:22:48;4.00;;;3.70;;
10661;SDS011;5379;51.034;7.006;2023-05-10T05:25:15;3.87;;;3.67;;
10661;SDS011;5379;51.034;7.006;2023-05-10T05:27:42;4.77;;;4.30;;
10661;SDS011;5379;51.034;7.006;2023-05-10T05:30:09;3.87;;;3.57;;
10661;SDS011;5379;51.034;7.006;2023-05-10T05:32:37;5.07;;;3.83;;
10661;SDS011;5379;51.034;7.006;2023-05-10T05:35:04;3.80;;;3.60;;
10661;SDS011;5379;51.034;7.006;2023-05-10T05:37:32;4.10;;;3.83;;
10661;SDS011;5379;51.034;7.006;2023-05-10T05:40:00;4.53;;;4.23;;
10661;SDS011;5379;51.034;7.006;2023-05-10T05:42:28;3.53;;;3.30;;
10661;SDS011;5379;51.034;7.006;2023-05-10T05:44:55;4.73;;;4.33;;
10661;SDS011;5379;51.034;7.006;2023-05-10T05:47:21;4.03;;;3.73;;
10661;SDS011;5379;51.034;7.006;2023-05-10T05:49:48;3.80;;;3.60;;
10661;SDS011;5379;51.034;7.006;2023-05-10T05:52:15;4.50;;;4.17;;
10661;SDS011;5379;51.034;7.006;2023-05-10T05:54:42;4.33;;;4.03;;
10661;SDS011;5379;51.034;7.006;2023-05-10T05:57:11;3.60;;;3.40;;
10661;SDS011;5379;51.034;7.006;2023-05-10T05:59:38;6.27;;;4.77;;
10661;SDS011;5379;51.034;7.006;2023-05-10T06:02:07;4.20;;;3.87;;
10661;SDS011;5379;51.034;7.006;2023-05-10T06:04:34;4.60;;;4.20;;
10661;SDS011;5379;51.034;7.006;2023-05-10T06:07:01;4.90;;;4.37;;
10661;SDS011;5379;51.034;7.006;2023-05-10T06:09:27;4.07;;;3.77;;
10661;SDS011;5379;51.034;7.006;2023-05-10T06:11:54;4.63;;;4.23;;
10661;SDS011;5379;51.034;7.006;2023-05-10T06:14:23;4.83;;;4.27;;
10661;SDS011;5379;51.034;7.006;2023-05-10T06:16:50;4.87;;;4.47;;
10661;SDS011;5379;51.034;7.006;2023-05-10T06:19:17;4.67;;;4.37;;
10661;SDS011;5379;51.034;7.006;2023-05-10T06:21:44;3.97;;;3.67;;
10661;SDS011;5379;51.034;7.006;2023-05-10T06:24:11;5.10;;;4.07;;
10661;SDS011;5379;51.034;7.006;2023-05-10T06:26:38;6.07;;;5.33;;
10661;SDS011;5379;51.034;7.006;2023-05-10T06:29:05;5.00;;;4.37;;
10661;SDS011;5379;51.034;7.006;2023-05-10T06:31:33;5.30;;;4.80;;
10661;SDS011;5379;51.034;7.006;2023-05-10T06:34:00;4.90;;;4.50;;
10661;SDS011;5379;51.034;7.006;2023-05-10T06:36:27;5.13;;;4.67;;
10661;SDS011;5379;51.034;7.006;2023-05-10T06:38:54;5.63;;;5.13;;
10661;SDS011;5379;51.034;7.006;2023-05-10T06:41:21;5.00;;;4.30;;
10661;SDS011;5379;51.034;7.006;2023-05-10T06:43:48;5.17;;;4.67;;
10661;SDS011;5379;51.034;7.006;2023-05-10T06:46:15;6.23;;;4.53;;
10661;SDS011;5379;51.034;7.006;2023-05-10T06:48:44;7.00;;;4.83;;
10661;SDS011;5379;51.034;7.006;2023-05-10T06:51:11;4.23;;;3.93;;
10661;SDS011;5379;51.034;7.006;2023-05-10T06:53:37;4.67;;;4.27;;
10661;SDS011;5379;51.034;7.006;2023-05-10T06:56:05;3.80;;;3.50;;
10661;SDS011;5379;51.034;7.006;2023-05-10T06:58:32;5.23;;;4.73;;
10661;SDS011;5379;51.034;7.006;2023-05-10T07:01:02;4.40;;;4.00;;
10661;SDS011;5379;51.034;7.006;2023-05-10T07:03:29;4.53;;;4.13;;
10661;SDS011;5379;51.034;7.006;2023-05-10T07:06:01;4.10;;;3.83;;
10661;SDS011;5379;51.034;7.006;2023-05-10T07:08:29;3.60;;;3.40;;
10661;SDS011;5379;51.034;7.006;2023-05-10T07:11:00;4.87;;;4.47;;
10661;SDS011;5379;51.034;7.006;2023-05-10T07:13:28;5.37;;;4.80;;
10661;SDS011;5379;51.034;7.006;2023-05-10T07:15:56;4.53;;;4.13;;
10661;SDS011;5379;51.034;7.006;2023-05-10T07:18:23;4.63;;;4.30;;
10661;SDS011;5379;51.034;7.006;2023-05-10T07:20:50;5.53;;;3.83;;
10661;SDS011;5379;51.034;7.006;2023-05-10T07:23:18;5.13;;;4.10;;
10661;SDS011;5379;51.034;7.006;2023-05-10T07:25:46;4.77;;;4.30;;
10661;SDS011;5379;51.034;7.006;2023-05-10T07:28:13;4.17;;;3.87;;
10661;SDS011;5379;51.034;7.006;2023-05-10T07:30:40;4.07;;;3.77;;
10661;SDS011;5379;51.034;7.006;2023-05-10T07:33:07;3.93;;;3.63;;
10661;SDS011;5379;51.034;7.006;2023-05-10T07:35:35;6.47;;;4.40;;
10661;SDS011;5379;51.034;7.006;2023-05-10T07:38:02;3.80;;;3.47;;
10661;SDS011;5379;51.034;7.006;2023-05-10T07:40:30;5.87;;;3.90;;
10661;SDS011;5379;51.034;7.006;2023-05-10T07:42:57;3.97;;;3.67;;
10661;SDS011;5379;51.034;7.006;2023-05-10T07:45:24;4.13;;;3.83;;
10661;SDS011;5379;51.034;7.006;2023-05-10T07:47:51;4.23;;;3.83;;
10661;SDS011;5379;51.034;7.006;2023-05-10T07:50:18;4.87;;;4.47;;
10661;SDS011;5379;51.034;7.006;2023-05-10T07:52:46;5.00;;;4.50;;
10661;SDS011;5379;51.034;7.006;2023-05-10T07:55:13;3.93;;;3.60;;
10661;SDS011;5379;51.034;7.006;2023-05-10T07:57:42;7.13;;;4.13;;
10661;SDS011;5379;51.034;7.006;2023-05-10T08:00:11;3.80;;;3.50;;
10661;SDS011;5379;51.034;7.006;2023-05-10T08:02:39;4.63;;;4.13;;
10661;SDS011;5379;51.034;7.006;2023-05-10T08:05:07;5.13;;;4.73;;
10661;SDS011;5379;51.034;7.006;2023-05-10T08:07:34;4.03;;;3.73;;
10661;SDS011;5379;51.034;7.006;2023-05-10T08:10:01;4.87;;;4.37;;
10661;SDS011;5379;51.034;7.006;2023-05-10T08:12:28;7.43;;;4.67;;
10661;SDS011;5379;51.034;7.006;2023-05-10T08:14:57;4.27;;;3.93;;
10661;SDS011;5379;51.034;7.006;2023-05-10T08:17:23;4.13;;;3.83;;
10661;SDS011;5379;51.034;7.006;2023-05-10T08:19:50;4.27;;;3.83;;
10661;SDS011;5379;51.034;7.006;2023-05-10T08:22:17;4.20;;;3.90;;
10661;SDS011;5379;51.034;7.006;2023-05-10T08:24:44;4.00;;;3.67;;
10661;SDS011;5379;51.034;7.006;2023-05-10T08:27:11;4.07;;;3.77;;
10661;SDS011;5379;51.034;7.006;2023-05-10T08:29:38;5.13;;;4.67;;
10661;SDS011;5379;51.034;7.006;2023-05-10T08:32:07;3.87;;;3.60;;
10661;SDS011;5379;51.034;7.006;2023-05-10T08:34:33;4.13;;;3.83;;
10661;SDS011;5379;51.034;7.006;2023-05-10T08:37:01;4.00;;;3.63;;
10661;SDS011;5379;51.034;7.006;2023-05-10T08:39:27;3.53;;;3.33;;
10661;SDS011;5379;51.034;7.006;2023-05-10T08:41:54;3.73;;;3.50;;
10661;SDS011;5379;51.034;7.006;2023-05-10T08:44:26;4.23;;;3.93;;
10661;SDS011;5379;51.034;7.006;2023-05-10T08:46:55;3.67;;;3.37;;
10661;SDS011;5379;51.034;7.006;2023-05-10T08:49:25;4.17;;;3.87;;
10661;SDS011;5379;51.034;7.006;2023-05-10T08:51:55;4.10;;;3.77;;
10661;SDS011;5379;51.034;7.006;2023-05-10T08:54:23;4.23;;;3.90;;
10661;SDS011;5379;51.034;7.006;2023-05-10T08:56:50;3.67;;;3.40;;
10661;SDS011;5379;51.034;7.006;2023-05-10T08:59:18;4.47;;;4.17;;
10661;SDS011;5379;51.034;7.006;2023-05-10T09:01:45;4.60;;;4.20;;
10661;SDS011;5379;51.034;7.006;2023-05-10T09:04:14;5.00;;;4.30;;
10661;SDS011;5379;51.034;7.006;2023-05-10T09:06:52;3.87;;;3.57;;
10661;SDS011;5379;51.034;7.006;2023-05-10T09:09:20;4.20;;;3.93;;
10661;SDS011;5379;51.034;7.006;2023-05-10T09:11:48;2.97;;;2.77;;
10661;SDS011;5379;51.034;7.006;2023-05-10T09:14:15;3.20;;;3.00;;
10661;SDS011;5379;51.034;7.006;2023-05-10T09:16:43;4.20;;;3.90;;
10661;SDS011;5379;51.034;7.006;2023-05-10T09:19:10;4.67;;;4.27;;
10661;SDS011;5379;51.034;7.006;2023-05-10T09:21:38;5.50;;;5.00;;
10661;SDS011;5379;51.034;7.006;2023-05-10T09:24:06;6.60;;;5.20;;
10661;SDS011;5379;51.034;7.006;2023-05-10T09:26:34;5.20;;;4.77;;
10661;SDS011;5379;51.034;7.006;2023-05-10T09:29:02;7.20;;;5.27;;
10661;SDS011;5379;51.034;7.006;2023-05-10T09:34:20;5.43;;;4.90;;
10661;SDS011;5379;51.034;7.006;2023-05-10T09:36:55;6.43;;;5.83;;
10661;SDS011;5379;51.034;7.006;2023-05-10T09:39:33;5.20;;;4.73;;
10661;SDS011;5379;51.034;7.006;2023-05-10T09:42:02;6.10;;;5.60;;
10661;SDS011;5379;51.034;7.006;2023-05-10T09:44:30;7.97;;;5.83;;
10661;SDS011;5379;51.034;7.006;2023-05-10T09:46:57;10.57;;;6.97;;
10661;SDS011;5379;51.034;7.006;2023-05-10T09:49:24;5.43;;;5.03;;
10661;SDS011;5379;51.034;7.006;2023-05-10T09:51:59;6.27;;;5.67;;
10661;SDS011;5379;51.034;7.006;2023-05-10T09:54:27;6.50;;;5.90;;
10661;SDS011;5379;51.034;7.006;2023-05-10T09:56:56;6.93;;;6.33;;
10661;SDS011;5379;51.034;7.006;2023-05-10T09:59:24;6.77;;;6.17;;
10661;SDS011;5379;51.034;7.006;2023-05-10T10:01:52;6.07;;;5.50;;
10661;SDS011;5379;51.034;7.006;2023-05-10T10:04:21;5.10;;;4.70;;
10661;SDS011;5379;51.034;7.006;2023-05-10T10:06:58;6.10;;;5.50;;
10661;SDS011;5379;51.034;7.006;2023-05-10T10:09:26;6.80;;;6.20;;
10661;SDS011;5379;51.034;7.006;2023-05-10T10:11:55;5.37;;;4.90;;
10661;SDS011;5379;51.034;7.006;2023-05-10T10:14:22;4.63;;;4.23;;
10661;SDS011;5379;51.034;7.006;2023-05-10T10:16:50;5.80;;;5.30;;
10661;SDS011;5379;51.034;7.006;2023-05-10T10:19:18;5.97;;;5.43;;
10661;SDS011;5379;51.034;7.006;2023-05-10T10:21:45;6.17;;;5.57;;
10661;SDS011;5379;51.034;7.006;2023-05-10T10:24:12;6.73;;;6.03;;
10661;SDS011;5379;51.034;7.006;2023-05-10T10:26:39;8.30;;;5.63;;
10661;SDS011;5379;51.034;7.006;2023-05-10T10:29:14;5.07;;;4.67;;
10661;SDS011;5379;51.034;7.006;2023-05-10T10:31:48;8.33;;;5.67;;
10661;SDS011;5379;51.034;7.006;2023-05-10T10:34:27;5.57;;;5.13;;
10661;SDS011;5379;51.034;7.006;2023-05-10T10:36:56;5.07;;;4.67;;
10661;SDS011;5379;51.034;7.006;2023-05-10T10:39:24;4.27;;;3.97;;
10661;SDS011;5379;51.034;7.006;2023-05-10T10:41:51;6.57;;;5.97;;
10661;SDS011;5379;51.034;7.006;2023-05-10T10:44:33;6.60;;;5.90;;
10661;SDS011;5379;51.034;7.006;2023-05-10T10:47:02;9.67;;;5.10;;
10661;SDS011;5379;51.034;7.006;2023-05-10T10:49:33;5.40;;;5.00;;
10661;SDS011;5379;51.034;7.006;2023-05-10T10:52:14;5.53;;;5.10;;
10661;SDS011;5379;51.034;7.006;2023-05-10T10:54:46;6.23;;;5.00;;
10661;SDS011;5379;51.034;7.006;2023-05-10T10:57:18;5.10;;;4.70;;
10661;SDS011;5379;51.034;7.006;2023-05-10T10:59:48;6.63;;;5.27;;
10661;SDS011;5379;51.034;7.006;2023-05-10T11:02:33;4.63;;;4.23;;
10661;SDS011;5379;51.034;7.006;2023-05-10T11:08:16;5.53;;;5.10;;
10661;SDS011;5379;51.034;7.006;2023-05-10T11:13:32;5.83;;;5.33;;
10661;SDS011;5379;51.034;7.006;2023-05-10T11:16:10;4.50;;;4.17;;
10661;SDS011;5379;51.034;7.006;2023-05-10T11:18:39;4.33;;;3.93;;
10661;SDS011;5379;51.034;7.006;2023-05-10T11:21:08;4.07;;;3.77;;
10661;SDS011;5379;51.034;7.006;2023-05-10T11:23:47;4.10;;;3.80;;
10661;SDS011;5379;51.034;7.006;2023-05-10T11:26:15;4.20;;;3.90;;
10661;SDS011;5379;51.034;7.006;2023-05-10T11:28:43;5.33;;;4.93;;
10661;SDS011;5379;51.034;7.006;2023-05-10T11:31:11;4.47;;;4.17;;
10661;SDS011;5379;51.034;7.006;2023-05-10T11:33:43;4.23;;;3.83;;
10661;SDS011;5379;51.034;7.006;2023-05-10T11:36:10;3.70;;;3.40;;
10661;SDS011;5379;51.034;7.006;2023-05-10T11:38:38;3.73;;;3.50;;
10661;SDS011;5379;51.034;7.006;2023-05-10T11:41:05;5.40;;;3.97;;
10661;SDS011;5379;51.034;7.006;2023-05-10T11:43:33;3.30;;;3.00;;
10661;SDS011;5379;51.034;7.006;2023-05-10T11:46:03;2.70;;;2.50;;
10661;SDS011;5379;51.034;7.006;2023-05-10T11:48:32;6.33;;;2.93;;
10661;SDS011;5379;51.034;7.006;2023-05-10T11:51:00;2.87;;;2.73;;
10661;SDS011;5379;51.034;7.006;2023-05-10T11:53:27;4.07;;;2.40;;
10661;SDS011;5379;51.034;7.006;2023-05-10T11:55:54;2.87;;;2.27;;
10661;SDS011;5379;51.034;7.006;2023-05-10T11:58:23;3.57;;;3.27;;
10661;SDS011;5379;51.034;7.006;2023-05-10T12:00:50;2.57;;;2.47;;
10661;SDS011;5379;51.034;7.006;2023-05-10T12:03:17;2.70;;;2.50;;
10661;SDS011;5379;51.034;7.006;2023-05-10T12:05:46;2.60;;;2.50;;
10661;SDS011;5379;51.034;7.006;2023-05-10T12:08:13;2.90;;;1.80;;
10661;SDS011;5379;51.034;7.006;2023-05-10T12:10:41;2.50;;;2.40;;
10661;SDS011;5379;51.034;7.006;2023-05-10T12:13:11;1.77;;;1.67;;
10661;SDS011;5379;51.034;7.006;2023-05-10T12:15:40;2.00;;;1.90;;
10661;SDS011;5379;51.034;7.006;2023-05-10T12:18:08;1.77;;;1.67;;
10661;SDS011;5379;51.034;7.006;2023-05-10T12:20:36;1.43;;;1.43;;
10661;SDS011;5379;51.034;7.006;2023-05-10T12:23:05;1.63;;;1.53;;
10661;SDS011;5379;51.034;7.006;2023-05-10T12:25:35;1.97;;;1.87;;
10661;SDS011;5379;51.034;7.006;2023-05-10T12:28:04;4.73;;;1.20;;
10661;SDS011;5379;51.034;7.006;2023-05-10T12:30:32;1.30;;;1.30;;
10661;SDS011;5379;51.034;7.006;2023-05-10T12:33:01;1.20;;;1.20;;
10661;SDS011;5379;51.034;7.006;2023-05-10T12:35:31;1.43;;;1.40;;
10661;SDS011;5379;51.034;7.006;2023-05-10T12:37:59;11.00;;;2.67;;
10661;SDS011;5379;51.034;7.006;2023-05-10T12:40:27;1.73;;;1.63;;
10661;SDS011;5379;51.034;7.006;2023-05-10T12:42:54;1.03;;;1.03;;
10661;SDS011;5379;51.034;7.006;2023-05-10T12:45:21;14.17;;;1.63;;
10661;SDS011;5379;51.034;7.006;2023-05-10T12:47:48;1.20;;;1.20;;
10661;SDS011;5379;51.034;7.006;2023-05-10T12:50:15;1.30;;;1.27;;
10661;SDS011;5379;51.034;7.006;2023-05-10T12:52:42;1.17;;;1.10;;
10661;SDS011;5379;51.034;7.006;2023-05-10T12:55:10;0.90;;;0.90;;
10661;SDS011;5379;51.034;7.006;2023-05-10T12:57:38;1.23;;;1.23;;
10661;SDS011;5379;51.034;7.006;2023-05-10T13:00:07;1.47;;;1.23;;
10661;SDS011;5379;51.034;7.006;2023-05-10T13:02:35;0.90;;;0.90;;
10661;SDS011;5379;51.034;7.006;2023-05-10T13:05:02;1.27;;;1.27;;
10661;SDS011;5379;51.034;7.006;2023-05-10T13:07:29;1.53;;;1.43;;
10661;SDS011;5379;51.034;7.006;2023-05-10T13:09:56;0.90;;;0.90;;
10661;SDS011;5379;51.034;7.006;2023-05-10T13:12:23;1.10;;;1.10;;
10661;SDS011;5379;51.034;7.006;2023-05-10T13:14:51;1.10;;;1.10;;
10661;SDS011;5379;51.034;7.006;2023-05-10T13:17:18;1.37;;;1.37;;
10661;SDS011;5379;51.034;7.006;2023-05-10T13:19:45;0.93;;;0.93;;
10661;SDS011;5379;51.034;7.006;2023-05-10T13:22:12;0.90;;;0.90;;
10661;SDS011;5379;51.034;7.006;2023-05-10T13:24:39;1.30;;;1.30;;
10661;SDS011;5379;51.034;7.006;2023-05-10T13:27:05;1.03;;;1.03;;
10661;SDS011;5379;51.034;7.006;2023-05-10T13:29:32;0.70;;;0.70;;
10661;SDS011;5379;51.034;7.006;2023-05-10T13:32:01;1.03;;;1.00;;
10661;SDS011;5379;51.034;7.006;2023-05-10T13:34:28;1.13;;;1.13;;
10661;SDS011;5379;51.034;7.006;2023-05-10T13:36:55;1.10;;;0.97;;
10661;SDS011;5379;51.034;7.006;2023-05-10T13:39:22;0.80;;;0.80;;
10661;SDS011;5379;51.034;7.006;2023-05-10T13:41:49;1.00;;;1.00;;
10661;SDS011;5379;51.034;7.006;2023-05-10T13:44:16;1.00;;;1.00;;
10661;SDS011;5379;51.034;7.006;2023-05-10T13:46:43;0.90;;;0.90;;
10661;SDS011;5379;51.034;7.006;2023-05-10T13:49:11;0.67;;;0.67;;
10661;SDS011;5379;51.034;7.006;2023-05-10T13:51:38;1.13;;;1.13;;
10661;SDS011;5379;51.034;7.006;2023-05-10T13:54:05;0.90;;;0.90;;
10661;SDS011;5379;51.034;7.006;2023-05-10T13:56:32;0.77;;;0.77;;
10661;SDS011;5379;51.034;7.006;2023-05-10T13:58:59;1.20;;;1.10;;
10661;SDS011;5379;51.034;7.006;2023-05-10T14:01:27;0.80;;;0.80;;
10661;SDS011;5379;51.034;7.006;2023-05-10T14:03:53;1.30;;;1.23;;
10661;SDS011;5379;51.034;7.006;2023-05-10T14:06:22;0.87;;;0.87;;
10661;SDS011;5379;51.034;7.006;2023-05-10T14:08:49;0.80;;;0.80;;
10661;SDS011;5379;51.034;7.006;2023-05-10T14:11:16;0.97;;;0.97;;
10661;SDS011;5379;51.034;7.006;2023-05-10T14:13:43;0.80;;;0.80;;
10661;SDS011;5379;51.034;7.006;2023-05-10T14:16:10;0.90;;;0.90;;
10661;SDS011;5379;51.034;7.006;2023-05-10T14:18:37;0.70;;;0.70;;
10661;SDS011;5379;51.034;7.006;2023-05-10T14:21:04;0.90;;;0.90;;
10661;SDS011;5379;51.034;7.006;2023-05-10T14:23:32;0.90;;;0.90;;
10661;SDS011;5379;51.034;7.006;2023-05-10T14:25:59;0.90;;;0.90;;
10661;SDS011;5379;51.034;7.006;2023-05-10T14:28:26;1.33;;;1.23;;
10661;SDS011;5379;51.034;7.006;2023-05-10T14:30:53;1.47;;;1.37;;
10661;SDS011;5379;51.034;7.006;2023-05-10T14:33:20;2.20;;;2.10;;
10661;SDS011;5379;51.034;7.006;2023-05-10T14:35:47;3.37;;;3.03;;
10661;SDS011;5379;51.034;7.006;2023-05-10T14:38:14;2.43;;;2.33;;
10661;SDS011;5379;51.034;7.006;2023-05-10T14:40:43;2.87;;;2.67;;
10661;SDS011;5379;51.034;7.006;2023-05-10T14:43:10;3.80;;;3.50;;
10661;SDS011;5379;51.034;7.006;2023-05-10T14:45:37;3.40;;;3.17;;
10661;SDS011;5379;51.034;7.006;2023-05-10T14:48:04;3.20;;;3.00;;
10661;SDS011;5379;51.034;7.006;2023-05-10T14:50:31;3.47;;;3.27;;
10661;SDS011;5379;51.034;7.006;2023-05-10T14:52:58;4.37;;;4.03;;
10661;SDS011;5379;51.034;7.006;2023-05-10T14:55:25;3.30;;;3.10;;
10661;SDS011;5379;51.034;7.006;2023-05-10T14:57:53;5.27;;;3.57;;
10661;SDS011;5379;51.034;7.006;2023-05-10T15:00:20;2.97;;;2.73;;
10661;SDS011;5379;51.034;7.006;2023-05-10T15:02:47;3.17;;;2.97;;
10661;SDS011;5379;51.034;7.006;2023-05-10T15:05:14;2.83;;;2.73;;
10661;SDS011;5379;51.034;7.006;2023-05-10T15:07:42;3.13;;;2.93;;
10661;SDS011;5379;51.034;7.006;2023-05-10T15:10:09;2.47;;;2.27;;
10661;SDS011;5379;51.034;7.006;2023-05-10T15:12:36;2.97;;;2.77;;
10661;SDS011;5379;51.034;7.006;2023-05-10T15:15:05;2.80;;;2.60;;
10661;SDS011;5379;51.034;7.006;2023-05-10T15:17:33;2.10;;;2.00;;
10661;SDS011;5379;51.034;7.006;2023-05-10T15:20:00;2.47;;;2.27;;
10661;SDS011;5379;51.034;7.006;2023-05-10T15:22:28;2.90;;;2.70;;
10661;SDS011;5379;51.034;7.006;2023-05-10T15:24:56;2.50;;;2.37;;
10661;SDS011;5379;51.034;7.006;2023-05-10T15:27:23;3.37;;;3.07;;
10661;SDS011;5379;51.034;7.006;2023-05-10T15:29:50;2.93;;;2.67;;
10661;SDS011;5379;51.034;7.006;2023-05-10T15:32:19;1.90;;;1.80;;
10661;SDS011;5379;51.034;7.006;2023-05-10T15:34:46;6.03;;;2.53;;
10661;SDS011;5379;51.034;7.006;2023-05-10T15:37:13;2.37;;;2.27;;
10661;SDS011;5379;51.034;7.006;2023-05-10T15:39:40;2.50;;;2.30;;
10661;SDS011;5379;51.034;7.006;2023-05-10T15:42:07;2.47;;;2.33;;
10661;SDS011;5379;51.034;7.006;2023-05-10T15:44:33;1.93;;;1.83;;
10661;SDS011;5379;51.034;7.006;2023-05-10T15:47:03;2.27;;;2.17;;
10661;SDS011;5379;51.034;7.006;2023-05-10T15:49:31;2.70;;;2.50;;
10661;SDS011;5379;51.034;7.006;2023-05-10T15:51:58;2.23;;;2.03;;
10661;SDS011;5379;51.034;7.006;2023-05-10T15:54:26;2.73;;;2.53;;
10661;SDS011;5379;51.034;7.006;2023-05-10T15:56:53;2.40;;;2.20;;
10661;SDS011;5379;51.034;7.006;2023-05-10T15:59:20;2.27;;;2.17;;
10661;SDS011;5379;51.034;7.006;2023-05-10T16:01:47;2.33;;;2.00;;
10661;SDS011;5379;51.034;7.006;2023-05-10T16:04:16;2.30;;;1.97;;
10661;SDS011;5379;51.034;7.006;2023-05-10T16:06:45;2.20;;;2.10;;
10661;SDS011;5379;51.034;7.006;2023-05-10T16:09:12;2.20;;;2.10;;
10661;SDS011;5379;51.034;7.006;2023-05-10T16:11:40;2.00;;;1.87;;
10661;SDS011;5379;51.034;7.006;2023-05-10T16:14:08;2.93;;;1.97;;
10661;SDS011;5379;51.034;7.006;2023-05-10T16:16:35;3.93;;;2.60;;
10661;SDS011;5379;51.034;7.006;2023-05-10T16:19:02;2.17;;;2.07;;
10661;SDS011;5379;51.034;7.006;2023-05-10T16:21:29;1.60;;;1.50;;
10661;SDS011;5379;51.034;7.006;2023-05-10T16:23:58;2.20;;;2.00;;
10661;SDS011;5379;51.034;7.006;2023-05-10T16:26:26;1.70;;;1.60;;
10661;SDS011;5379;51.034;7.006;2023-05-10T16:28:53;1.77;;;1.67;;
10661;SDS011;5379;51.034;7.006;2023-05-10T16:31:20;1.43;;;1.43;;
10661;SDS011;5379;51.034;7.006;2023-05-10T16:33:46;1.60;;;1.50;;
10661;SDS011;5379;51.034;7.006;2023-05-10T16:36:13;3.23;;;2.00;;
10661;SDS011;5379;51.034;7.006;2023-05-10T16:38:40;4.67;;;1.90;;
10661;SDS011;5379;51.034;7.006;2023-05-10T16:41:09;1.73;;;1.63;;
10661;SDS011;5379;51.034;7.006;2023-05-10T16:43:36;1.90;;;1.80;;
10661;SDS011;5379;51.034;7.006;2023-05-10T16:46:08;1.93;;;1.83;;
10661;SDS011;5379;51.034;7.006;2023-05-10T16:48:35;1.93;;;1.83;;
10661;SDS011;5379;51.034;7.006;2023-05-10T16:51:02;47.17;;;3.00;;
10661;SDS011;5379;51.034;7.006;2023-05-10T16:53:29;2.97;;;2.47;;
10661;SDS011;5379;51.034;7.006;2023-05-10T16:55:56;1.47;;;1.47;;
10661;SDS011;5379;51.034;7.006;2023-05-10T16:58:24;2.60;;;2.00;;
10661;SDS011;5379;51.034;7.006;2023-05-10T17:00:51;2.57;;;2.37;;
10661;SDS011;5379;51.034;7.006;2023-05-10T17:03:18;2.40;;;1.77;;
10661;SDS011;5379;51.034;7.006;2023-05-10T17:05:46;2.43;;;2.33;;
10661;SDS011;5379;51.034;7.006;2023-05-10T17:08:13;1.20;;;1.20;;
10661;SDS011;5379;51.034;7.006;2023-05-10T17:10:42;1.70;;;1.17;;
10661;SDS011;5379;51.034;7.006;2023-05-10T17:13:08;0.90;;;0.90;;
10661;SDS011;5379;51.034;7.006;2023-05-10T17:15:37;0.80;;;0.80;;
10661;SDS011;5379;51.034;7.006;2023-05-10T17:18:04;0.50;;;0.50;;
10661;SDS011;5379;51.034;7.006;2023-05-10T17:20:33;0.60;;;0.60;;
10661;SDS011;5379;51.034;7.006;2023-05-10T17:23:02;0.90;;;0.90;;
10661;SDS011;5379;51.034;7.006;2023-05-10T17:25:29;1.60;;;1.27;;
10661;SDS011;5379;51.034;7.006;2023-05-10T17:27:55;1.30;;;1.30;;
10661;SDS011;5379;51.034;7.006;2023-05-10T17:30:25;1.40;;;1.40;;
10661;SDS011;5379;51.034;7.006;2023-05-10T17:32:56;1.70;;;1.60;;
10661;SDS011;5379;51.034;7.006;2023-05-10T17:35:24;3.17;;;2.50;;
10661;SDS011;5379;51.034;7.006;2023-05-10T17:37:51;1.30;;;1.30;;
10661;SDS011;5379;51.034;7.006;2023-05-10T17:40:18;2.13;;;2.03;;
10661;SDS011;5379;51.034;7.006;2023-05-10T17:42:45;1.83;;;1.73;;
10661;SDS011;5379;51.034;7.006;2023-05-10T17:45:12;2.00;;;1.90;;
10661;SDS011;5379;51.034;7.006;2023-05-10T17:47:39;1.80;;;1.70;;
10661;SDS011;5379;51.034;7.006;2023-05-10T17:50:08;2.03;;;1.93;;
10661;SDS011;5379;51.034;7.006;2023-05-10T17:52:35;1.63;;;1.63;;
10661;SDS011;5379;51.034;7.006;2023-05-10T17:55:03;1.53;;;1.53;;
10661;SDS011;5379;51.034;7.006;2023-05-10T17:57:30;1.80;;;1.70;;
10661;SDS011;5379;51.034;7.006;2023-05-10T17:59:57;2.00;;;1.90;;
10661;SDS011;5379;51.034;7.006;2023-05-10T18:02:26;1.60;;;1.50;;
10661;SDS011;5379;51.034;7.006;2023-05-10T18:04:53;2.00;;;1.90;;
10661;SDS011;5379;51.034;7.006;2023-05-10T18:07:21;2.07;;;1.97;;
10661;SDS011;5379;51.034;7.006;2023-05-10T18:09:49;1.90;;;1.80;;
10661;SDS011;5379;51.034;7.006;2023-05-10T18:12:16;1.67;;;1.67;;
10661;SDS011;5379;51.034;7.006;2023-05-10T18:14:43;2.07;;;1.97;;
10661;SDS011;5379;51.034;7.006;2023-05-10T18:17:10;1.93;;;1.80;;
10661;SDS011;5379;51.034;7.006;2023-05-10T18:19:38;1.90;;;1.80;;
10661;SDS011;5379;51.034;7.006;2023-05-10T18:22:05;1.90;;;1.80;;
10661;SDS011;5379;51.034;7.006;2023-05-10T18:24:33;2.60;;;2.40;;
10661;SDS011;5379;51.034;7.006;2023-05-10T18:27:00;2.63;;;2.43;;
10661;SDS011;5379;51.034;7.006;2023-05-10T18:29:28;2.47;;;2.37;;
10661;SDS011;5379;51.034;7.006;2023-05-10T18:31:55;2.23;;;2.13;;
10661;SDS011;5379;51.034;7.006;2023-05-10T18:34:22;3.00;;;2.80;;
10661;SDS011;5379;51.034;7.006;2023-05-10T18:36:49;2.73;;;2.50;;
10661;SDS011;5379;51.034;7.006;2023-05-10T18:39:16;2.37;;;2.27;;
10661;SDS011;5379;51.034;7.006;2023-05-10T18:41:44;1.97;;;1.73;;
10661;SDS011;5379;51.034;7.006;2023-05-10T18:44:11;4.27;;;2.60;;
10661;SDS011;5379;51.034;7.006;2023-05-10T18:46:38;3.13;;;2.23;;
10661;SDS011;5379;51.034;7.006;2023-05-10T18:49:06;2.23;;;2.07;;
10661;SDS011;5379;51.034;7.006;2023-05-10T18:51:33;2.27;;;2.17;;
10661;SDS011;5379;51.034;7.006;2023-05-10T18:54:00;2.13;;;1.97;;
10661;SDS011;5379;51.034;7.006;2023-05-10T18:56:27;2.30;;;2.20;;
10661;SDS011;5379;51.034;7.006;2023-05-10T18:58:56;2.27;;;2.17;;
10661;SDS011;5379;51.034;7.006;2023-05-10T19:01:22;2.17;;;2.07;;
10661;SDS011;5379;51.034;7.006;2023-05-10T19:03:50;1.80;;;1.70;;
10661;SDS011;5379;51.034;7.006;2023-05-10T19:06:17;2.20;;;2.10;;
10661;SDS011;5379;51.034;7.006;2023-05-10T19:08:43;2.73;;;2.47;;
10661;SDS011;5379;51.034;7.006;2023-05-10T19:11:10;2.00;;;1.90;;
10661;SDS011;5379;51.034;7.006;2023-05-10T19:13:37;2.60;;;2.40;;
10661;SDS011;5379;51.034;7.006;2023-05-10T19:16:09;2.40;;;2.30;;
10661;SDS011;5379;51.034;7.006;2023-05-10T19:18:37;2.47;;;2.37;;
10661;SDS011;5379;51.034;7.006;2023-05-10T19:21:04;3.93;;;3.63;;
10661;SDS011;5379;51.034;7.006;2023-05-10T19:23:33;2.27;;;2.17;;
10661;SDS011;5379;51.034;7.006;2023-05-10T19:26:00;3.00;;;2.90;;
10661;SDS011;5379;51.034;7.006;2023-05-10T19:28:27;2.93;;;2.73;;
10661;SDS011;5379;51.034;7.006;2023-05-10T19:30:54;2.10;;;1.90;;
10661;SDS011;5379;51.034;7.006;2023-05-10T19:33:23;2.77;;;2.67;;
10661;SDS011;5379;51.034;7.006;2023-05-10T19:35:50;2.37;;;2.27;;
10661;SDS011;5379;51.034;7.006;2023-05-10T19:38:18;2.10;;;2.00;;
10661;SDS011;5379;51.034;7.006;2023-05-10T19:40:48;2.00;;;1.90;;
10661;SDS011;5379;51.034;7.006;2023-05-10T19:43:15;1.97;;;1.90;;